Time;durP1;ratioP1;P1;durP2;ratioP2;P2;SDS_P1;SDS_P2;PMS_P1;PMS_P2;Temp;Humidity;BMP_temperature;BMP_pressure;BME280_temperature;BME280_humidity;BME280_pressure;Samples;Min_cycle;Max_cycle;Signal;HPM_P1;HPM_P2
2023/04/21 00:00:08;;;;;;;47.73;28.23;;;7.30;99.90;;;;;;5113678;28;20677;-72
2023/04/21 00:02:38;;;;;;;44.57;27.23;;;7.40;99.90;;;;;;5115539;28;20165;-72
2023/04/21 00:05:08;;;;;;;46.73;28.93;;;7.40;99.90;;;;;;5113611;28;20234;-72
2023/04/21 00:07:36;;;;;;;44.17;26.70;;;7.40;99.90;;;;;;5115184;28;20190;-72
2023/04/21 00:10:03;;;;;;;47.90;28.50;;;7.40;99.90;;;;;;5114802;28;20176;-72
2023/04/21 00:12:29;;;;;;;48.80;28.40;;;7.40;99.90;;;;;;5113466;28;20219;-72
2023/04/21 00:14:55;;;;;;;49.97;28.40;;;7.40;99.90;;;;;;5114697;28;20212;-72
2023/04/21 00:17:21;;;;;;;47.53;29.57;;;7.40;99.90;;;;;;5115093;28;20237;-72
2023/04/21 00:19:46;;;;;;;47.17;28.27;;;7.40;99.90;;;;;;5113354;28;20173;-72
2023/04/21 00:22:13;;;;;;;46.63;28.40;;;7.40;99.90;;;;;;5115065;28;20165;-72
2023/04/21 00:24:39;;;;;;;50.20;28.30;;;7.40;99.90;;;;;;5113274;28;20192;-71
2023/04/21 00:27:05;;;;;;;51.97;29.60;;;7.30;99.90;;;;;;5112896;28;20230;-72
2023/04/21 00:29:31;;;;;;;50.30;30.70;;;7.30;99.90;;;;;;5113117;28;20182;-72
2023/04/21 00:31:58;;;;;;;55.83;31.27;;;7.20;99.90;;;;;;5113152;28;20172;-72
2023/04/21 00:34:24;;;;;;;51.17;30.70;;;7.20;99.90;;;;;;5114403;27;20196;-72
2023/04/21 00:36:49;;;;;;;50.30;29.67;;;7.10;99.90;;;;;;5114809;28;20190;-72
2023/04/21 00:39:15;;;;;;;49.70;28.97;;;7.20;99.90;;;;;;5115075;28;20230;-72
2023/04/21 00:41:42;;;;;;;57.90;29.93;;;7.30;99.90;;;;;;5114305;28;20196;-72
2023/04/21 00:44:09;;;;;;;49.63;29.40;;;7.40;99.90;;;;;;5114260;28;20171;-72
2023/04/21 00:46:35;;;;;;;49.97;27.93;;;7.40;99.90;;;;;;5114373;28;20232;-72
2023/04/21 00:49:06;;;;;;;49.00;29.50;;;7.50;99.90;;;;;;5114362;28;20169;-72
2023/04/21 00:51:34;;;;;;;51.47;30.33;;;7.50;99.90;;;;;;5114268;28;20160;-72
2023/04/21 00:54:01;;;;;;;49.57;29.47;;;7.50;99.90;;;;;;5115957;28;20176;-70
2023/04/21 00:56:29;;;;;;;43.17;28.17;;;7.50;99.90;;;;;;5113675;28;20206;-70
2023/04/21 00:58:57;;;;;;;51.77;28.47;;;7.50;99.90;;;;;;5114235;28;20184;-70
2023/04/21 01:01:23;;;;;;;49.00;29.20;;;7.50;99.90;;;;;;5112550;28;20300;-71
2023/04/21 01:03:50;;;;;;;47.37;28.57;;;7.50;99.90;;;;;;5114629;28;20184;-71
2023/04/21 01:06:17;;;;;;;54.33;28.97;;;7.50;99.90;;;;;;5114000;28;20193;-71
2023/04/21 01:08:45;;;;;;;56.77;29.70;;;7.50;99.90;;;;;;5113965;28;20203;-69
2023/04/21 01:11:12;;;;;;;49.70;29.60;;;7.50;99.90;;;;;;5113730;28;20693;-70
2023/04/21 01:13:38;;;;;;;57.13;29.23;;;7.50;99.90;;;;;;5112750;28;20542;-70
2023/04/21 01:16:05;;;;;;;52.77;27.80;;;7.50;99.90;;;;;;5113860;28;20664;-71
2023/04/21 01:18:30;;;;;;;48.90;29.23;;;7.50;99.90;;;;;;5113949;28;20272;-70
2023/04/21 01:20:57;;;;;;;52.77;29.50;;;7.50;99.90;;;;;;5114140;28;20629;-70
2023/04/21 01:23:23;;;;;;;46.57;27.43;;;7.50;99.90;;;;;;5114254;28;20217;-70
2023/04/21 01:25:52;;;;;;;52.80;29.10;;;7.50;99.90;;;;;;5113969;28;20192;-71
2023/04/21 01:28:22;;;;;;;50.30;29.23;;;7.50;99.90;;;;;;5114223;28;20543;-71
2023/04/21 01:30:48;;;;;;;48.57;28.63;;;7.60;99.90;;;;;;5113252;28;20181;-70
2023/04/21 01:33:14;;;;;;;48.73;27.93;;;7.60;99.90;;;;;;5112703;28;20184;-70
2023/04/21 01:35:40;;;;;;;54.83;29.27;;;7.50;99.90;;;;;;5113882;28;20676;-70
2023/04/21 01:38:06;;;;;;;51.63;28.63;;;7.60;99.90;;;;;;5113802;28;20187;-70
2023/04/21 01:40:32;;;;;;;46.33;26.33;;;7.60;99.90;;;;;;5113543;28;20199;-70
2023/04/21 01:42:58;;;;;;;47.80;27.87;;;7.60;99.90;;;;;;5113860;28;20200;-70
2023/04/21 01:45:24;;;;;;;52.70;28.83;;;7.70;99.90;;;;;;5113606;28;20189;-70
2023/04/21 01:47:50;;;;;;;50.23;29.67;;;7.60;99.90;;;;;;5113994;28;20277;-70
2023/04/21 01:50:15;;;;;;;49.23;28.10;;;7.70;99.90;;;;;;5112265;28;20183;-70
2023/04/21 01:52:41;;;;;;;57.00;30.40;;;7.60;99.90;;;;;;5113906;28;20169;-70
2023/04/21 01:55:07;;;;;;;54.63;29.67;;;7.60;99.90;;;;;;5114382;28;20717;-70
2023/04/21 01:57:33;;;;;;;52.90;30.40;;;7.50;99.90;;;;;;5113411;28;20161;-70
2023/04/21 01:59:59;;;;;;;51.10;29.80;;;7.50;99.90;;;;;;5112103;28;20212;-70
2023/04/21 02:02:25;;;;;;;65.07;31.93;;;7.50;99.90;;;;;;5113548;28;20241;-70
2023/04/21 02:04:50;;;;;;;63.97;31.83;;;7.40;99.90;;;;;;5113417;28;20204;-70
2023/04/21 02:07:16;;;;;;;55.10;31.63;;;7.40;99.90;;;;;;5112375;28;20546;-70
2023/04/21 02:09:42;;;;;;;57.53;31.30;;;7.40;99.90;;;;;;5117182;28;20307;-70
2023/04/21 02:12:07;;;;;;;57.07;30.67;;;7.40;99.90;;;;;;5117823;28;20176;-73
2023/04/21 02:14:33;;;;;;;53.77;30.27;;;7.40;99.90;;;;;;5117221;28;20566;-74
2023/04/21 02:17:01;;;;;;;59.43;30.53;;;7.40;99.90;;;;;;5117323;28;20180;-74
2023/04/21 02:19:27;;;;;;;58.77;32.30;;;7.40;99.90;;;;;;5117914;28;20510;-73
2023/04/21 02:21:53;;;;;;;60.93;31.50;;;7.40;99.90;;;;;;5115906;28;20196;-73
2023/04/21 02:24:19;;;;;;;63.37;34.50;;;7.30;99.90;;;;;;5117205;28;20210;-74
2023/04/21 02:26:45;;;;;;;67.53;34.73;;;7.20;99.90;;;;;;5117242;28;20164;-73
2023/04/21 02:29:10;;;;;;;70.13;33.93;;;7.10;99.90;;;;;;5117817;28;20660;-71
2023/04/21 02:31:36;;;;;;;61.53;32.77;;;7.10;99.90;;;;;;5117710;28;20211;-72
2023/04/21 02:34:02;;;;;;;72.33;34.70;;;7.20;99.90;;;;;;5116695;27;20164;-72
2023/04/21 02:36:28;;;;;;;65.50;33.77;;;7.20;99.90;;;;;;5116463;27;20215;-72
2023/04/21 02:38:54;;;;;;;79.93;33.67;;;7.20;99.90;;;;;;5115348;28;20539;-72
2023/04/21 02:41:19;;;;;;;64.93;32.60;;;7.30;99.90;;;;;;5116440;28;20193;-72
2023/04/21 02:43:45;;;;;;;70.47;34.73;;;7.30;99.90;;;;;;5115281;28;20176;-72
2023/04/21 02:46:11;;;;;;;65.73;33.87;;;7.30;99.90;;;;;;5116641;28;20188;-72
2023/04/21 02:48:37;;;;;;;69.60;35.27;;;7.40;99.90;;;;;;5115086;28;20182;-72
2023/04/21 02:51:03;;;;;;;63.07;35.33;;;7.40;99.90;;;;;;5116428;28;20608;-72
2023/04/21 02:53:29;;;;;;;70.53;37.30;;;7.30;99.90;;;;;;5116960;28;20153;-72
2023/04/21 02:55:55;;;;;;;81.80;40.17;;;7.10;99.90;;;;;;5116126;28;20279;-72
2023/04/21 02:58:21;;;;;;;92.33;39.63;;;7.00;99.90;;;;;;5116684;28;20176;-72
2023/04/21 03:00:46;;;;;;;77.20;39.77;;;6.90;99.90;;;;;;5114776;28;20208;-72
2023/04/21 03:03:14;;;;;;;81.23;40.77;;;6.90;99.90;;;;;;5115567;28;20536;-70
2023/04/21 03:05:40;;;;;;;80.47;41.43;;;6.90;99.90;;;;;;5116178;28;20201;-70
2023/04/21 03:08:06;;;;;;;93.70;43.33;;;6.90;99.90;;;;;;5116593;28;20198;-70
2023/04/21 03:10:32;;;;;;;105.70;44.17;;;6.80;99.90;;;;;;5116084;28;20543;-70
2023/04/21 03:12:57;;;;;;;102.87;43.90;;;6.90;99.90;;;;;;5116099;28;20172;-70
2023/04/21 03:15:23;;;;;;;102.73;44.80;;;6.90;99.90;;;;;;5114528;28;20192;-70
2023/04/21 03:17:49;;;;;;;96.20;44.27;;;6.90;99.90;;;;;;5115796;28;20171;-70
2023/04/21 03:20:14;;;;;;;83.27;40.20;;;6.90;99.90;;;;;;5115725;28;20200;-70
2023/04/21 03:22:40;;;;;;;88.07;43.20;;;7.00;99.90;;;;;;5116195;28;20640;-72
2023/04/21 03:25:06;;;;;;;86.10;41.47;;;7.00;99.90;;;;;;5114275;28;20192;-72
2023/04/21 03:27:33;;;;;;;101.33;43.73;;;7.00;99.90;;;;;;5115578;28;20168;-72
2023/04/21 03:29:59;;;;;;;90.20;42.83;;;7.00;99.90;;;;;;5114621;28;20172;-72
2023/04/21 03:32:24;;;;;;;95.73;39.93;;;7.00;99.90;;;;;;5115519;28;20610;-72
2023/04/21 03:34:50;;;;;;;104.37;42.00;;;7.00;99.90;;;;;;5118520;28;20712;-72
2023/04/21 03:37:16;;;;;;;92.30;38.27;;;7.10;99.90;;;;;;5117499;28;20641;-71
2023/04/21 03:39:42;;;;;;;84.10;40.03;;;7.10;99.90;;;;;;5117376;28;20161;-72
2023/04/21 03:42:08;;;;;;;91.07;40.27;;;7.20;99.90;;;;;;5114549;28;20177;-71
2023/04/21 03:44:33;;;;;;;85.67;39.67;;;7.30;99.90;;;;;;5114386;28;20597;-71
2023/04/21 03:46:59;;;;;;;79.03;36.33;;;7.30;99.90;;;;;;5116025;28;20175;-72
2023/04/21 03:49:25;;;;;;;105.33;41.33;;;7.30;99.90;;;;;;5115266;28;20169;-71
2023/04/21 03:51:51;;;;;;;72.60;37.00;;;7.30;99.90;;;;;;5113811;28;20180;-71
2023/04/21 03:54:16;;;;;;;64.67;35.03;;;7.30;99.90;;;;;;5114078;28;20281;-72
2023/04/21 03:56:42;;;;;;;83.67;37.97;;;7.30;99.90;;;;;;5115143;28;20172;-72
2023/04/21 03:59:08;;;;;;;73.90;37.73;;;7.40;99.90;;;;;;5115468;28;20625;-72
2023/04/21 04:01:34;;;;;;;79.80;38.20;;;7.40;99.90;;;;;;5113502;28;20270;-72
2023/04/21 04:04:00;;;;;;;69.47;38.13;;;7.40;99.90;;;;;;5114941;28;20175;-72
2023/04/21 04:06:27;;;;;;;101.73;42.23;;;7.30;99.90;;;;;;5114922;28;20582;-72
2023/04/21 04:08:53;;;;;;;104.67;43.30;;;7.30;99.90;;;;;;5115334;28;20673;-72
2023/04/21 04:11:18;;;;;;;104.73;42.70;;;7.30;99.90;;;;;;5114925;28;20165;-71
2023/04/21 04:13:44;;;;;;;104.87;43.77;;;7.30;99.90;;;;;;5113385;28;20237;-71
2023/04/21 04:16:10;;;;;;;88.47;42.67;;;7.20;99.90;;;;;;5114504;28;20196;-71
2023/04/21 04:18:36;;;;;;;100.13;45.03;;;7.20;99.90;;;;;;5114916;28;20218;-73
2023/04/21 04:21:06;;;;;;;94.00;43.53;;;7.10;99.90;;;;;;5114463;28;20637;-71
2023/04/21 04:23:32;;;;;;;84.13;42.40;;;7.10;99.90;;;;;;5114874;28;20243;-71
2023/04/21 04:25:58;;;;;;;87.23;40.37;;;7.10;99.90;;;;;;5114403;28;20645;-71
2023/04/21 04:28:24;;;;;;;101.80;41.20;;;7.10;99.90;;;;;;5113172;28;20180;-71
2023/04/21 04:30:50;;;;;;;104.70;44.77;;;7.10;99.90;;;;;;5114412;28;20165;-71
2023/04/21 04:33:18;;;;;;;87.37;40.10;;;7.10;99.90;;;;;;5114212;28;20679;-74
2023/04/21 04:35:44;;;;;;;97.17;42.93;;;7.10;99.90;;;;;;5113302;28;20732;-74
2023/04/21 04:38:10;;;;;;;109.07;40.37;;;7.20;99.90;;;;;;5114938;28;20176;-73
2023/04/21 04:40:35;;;;;;;96.03;40.17;;;7.20;99.90;;;;;;5114265;28;20203;-73
2023/04/21 04:43:02;;;;;;;107.93;41.20;;;7.20;99.90;;;;;;5113023;28;20233;-74
2023/04/21 04:45:31;;;;;;;68.57;36.03;;;7.30;99.90;;;;;;5114306;28;20196;-74
2023/04/21 04:47:57;;;;;;;88.73;38.47;;;7.30;99.90;;;;;;5113065;28;20628;-74
2023/04/21 04:50:23;;;;;;;75.50;37.07;;;7.40;99.90;;;;;;5114214;28;20172;-74
2023/04/21 04:52:50;;;;;;;90.43;38.97;;;7.40;99.90;;;;;;5114268;28;20176;-74
2023/04/21 04:55:16;;;;;;;74.23;36.13;;;7.40;99.90;;;;;;5114292;28;20273;-73
2023/04/21 04:57:41;;;;;;;86.77;40.50;;;7.40;99.90;;;;;;5112749;28;20213;-74
2023/04/21 05:00:13;;;;;;;81.57;38.60;;;7.50;99.90;;;;;;5114430;28;20212;-73
2023/04/21 05:02:39;;;;;;;95.93;39.30;;;7.40;99.90;;;;;;5114867;28;20152;-74
2023/04/21 05:05:06;;;;;;;93.90;39.47;;;7.50;99.90;;;;;;5113920;28;20196;-74
2023/04/21 05:07:35;;;;;;;74.17;36.83;;;7.50;99.90;;;;;;5112702;28;20172;-73
2023/04/21 05:10:03;;;;;;;80.47;38.73;;;7.50;99.90;;;;;;5113909;28;20172;-73
2023/04/21 05:12:31;;;;;;;86.70;38.30;;;7.60;99.90;;;;;;5113770;28;20169;-74
2023/04/21 05:14:56;;;;;;;84.27;36.60;;;7.60;99.90;;;;;;5114116;28;20656;-74
2023/04/21 05:17:22;;;;;;;68.77;36.33;;;7.60;99.90;;;;;;5112833;28;20187;-74
2023/04/21 05:19:48;;;;;;;67.13;36.10;;;7.60;99.90;;;;;;5113716;28;20229;-74
2023/04/21 05:22:14;;;;;;;93.97;39.70;;;7.60;99.90;;;;;;5114454;28;20176;-74
2023/04/21 05:24:43;;;;;;;80.80;36.53;;;7.60;99.90;;;;;;5113751;28;20227;-74
2023/04/21 05:27:09;;;;;;;82.10;37.07;;;7.70;99.90;;;;;;5113780;28;20192;-74
2023/04/21 05:29:35;;;;;;;94.60;37.83;;;7.70;99.90;;;;;;5112528;28;20215;-73
2023/04/21 05:32:00;;;;;;;69.17;36.43;;;7.70;99.90;;;;;;5112543;28;20172;-73
2023/04/21 05:34:26;;;;;;;82.83;37.63;;;7.70;99.90;;;;;;5113620;28;20579;-73
2023/04/21 05:36:52;;;;;;;87.30;38.63;;;7.80;99.90;;;;;;5112245;28;20229;-74
2023/04/21 05:39:17;;;;;;;106.20;37.37;;;7.80;99.90;;;;;;5113463;28;20173;-73
2023/04/21 05:41:43;;;;;;;75.77;35.70;;;7.80;99.90;;;;;;5113375;28;20202;-74
2023/04/21 05:44:09;;;;;;;80.60;35.73;;;7.80;99.90;;;;;;5115424;28;20230;-74
2023/04/21 05:46:35;;;;;;;79.73;36.93;;;7.80;99.90;;;;;;5117647;28;20164;-73
2023/04/21 05:49:03;;;;;;;80.43;36.33;;;7.80;99.90;;;;;;5118015;28;20247;-73
2023/04/21 05:51:30;;;;;;;77.40;34.80;;;7.80;99.90;;;;;;5120824;28;20180;-73
2023/04/21 05:53:56;;;;;;;59.87;31.93;;;7.80;99.90;;;;;;5117983;28;20173;-77
2023/04/21 05:56:22;;;;;;;80.00;35.50;;;7.90;99.90;;;;;;5117524;28;20211;-73
2023/04/21 05:58:48;;;;;;;74.73;36.47;;;7.90;99.90;;;;;;5117247;28;20203;-71
2023/04/21 06:01:14;;;;;;;76.03;37.93;;;7.90;99.90;;;;;;5115865;28;20298;-70
2023/04/21 06:03:40;;;;;;;80.17;38.03;;;7.90;99.90;;;;;;5116467;28;20207;-73
2023/04/21 06:06:06;;;;;;;68.57;35.27;;;7.90;99.90;;;;;;5116300;27;20696;-73
2023/04/21 06:08:32;;;;;;;65.93;34.53;;;8.00;99.90;;;;;;5117365;28;20193;-73
2023/04/21 06:10:57;;;;;;;72.50;35.37;;;8.10;99.90;;;;;;5115766;28;20211;-73
2023/04/21 06:13:23;;;;;;;77.03;36.03;;;8.20;99.90;;;;;;5117868;28;20176;-73
2023/04/21 06:15:49;;;;;;;60.10;35.47;;;8.20;99.90;;;;;;5117282;28;20714;-74
2023/04/21 06:18:15;;;;;;;73.03;38.83;;;8.30;99.90;;;;;;5116070;28;20207;-73
2023/04/21 06:20:41;;;;;;;88.90;38.87;;;8.30;99.90;;;;;;5115926;28;20200;-73
2023/04/21 06:23:08;;;;;;;80.90;40.77;;;8.40;99.90;;;;;;5115903;28;20168;-73
2023/04/21 06:25:35;;;;;;;71.80;38.20;;;8.50;99.90;;;;;;5117287;27;20656;-73
2023/04/21 06:28:00;;;;;;;68.80;37.83;;;8.60;99.90;;;;;;5117192;28;20188;-73
2023/04/21 06:30:26;;;;;;;72.17;36.77;;;8.70;99.90;;;;;;5116075;28;20199;-73
2023/04/21 06:32:52;;;;;;;81.57;41.57;;;8.80;99.90;;;;;;5117449;28;20263;-73
2023/04/21 06:35:19;;;;;;;76.43;40.77;;;8.90;99.90;;;;;;5115803;28;20208;-73
2023/04/21 06:37:45;;;;;;;69.00;38.80;;;8.90;99.90;;;;;;5116801;28;20168;-72
2023/04/21 06:40:14;;;;;;;72.27;40.43;;;9.00;99.90;;;;;;5116581;28;20207;-73
2023/04/21 06:42:40;;;;;;;81.47;41.57;;;9.10;99.90;;;;;;5115658;28;20513;-73
2023/04/21 06:45:06;;;;;;;80.57;42.20;;;9.10;99.90;;;;;;5116578;28;20267;-73
2023/04/21 06:47:32;;;;;;;74.50;40.87;;;9.20;99.90;;;;;;5115103;28;20173;-73
2023/04/21 06:49:58;;;;;;;61.53;37.00;;;9.20;99.90;;;;;;5116356;28;20191;-73
2023/04/21 06:52:24;;;;;;;69.93;39.10;;;9.30;99.90;;;;;;5115150;28;20255;-73
2023/04/21 06:54:49;;;;;;;70.37;41.23;;;9.40;99.90;;;;;;5114686;28;20317;-73
2023/04/21 06:57:16;;;;;;;77.57;40.63;;;9.50;99.90;;;;;;5115019;28;20181;-73
2023/04/21 06:59:42;;;;;;;77.40;40.50;;;9.40;99.90;;;;;;5114642;28;20194;-74
2023/04/21 07:02:08;;;;;;;69.70;39.27;;;9.40;99.90;;;;;;5116161;28;20279;-73
2023/04/21 07:04:33;;;;;;;68.73;38.30;;;9.50;99.90;;;;;;5114796;28;20574;-73
2023/04/21 07:06:59;;;;;;;67.83;40.67;;;9.60;99.90;;;;;;5114838;28;20168;-73
2023/04/21 07:09:27;;;;;;;64.70;39.20;;;9.70;99.90;;;;;;5116064;28;20188;-73
2023/04/21 07:11:54;;;;;;;69.43;39.20;;;9.70;99.90;;;;;;5114725;28;20267;-73
2023/04/21 07:14:19;;;;;;;69.10;38.83;;;9.70;99.90;;;;;;5116218;28;20537;-72
2023/04/21 07:16:45;;;;;;;64.53;38.23;;;9.70;99.90;;;;;;5115888;28;20183;-72
2023/04/21 07:19:11;;;;;;;63.23;38.77;;;9.70;99.90;;;;;;5114533;28;20191;-73
2023/04/21 07:21:37;;;;;;;56.80;36.47;;;9.70;99.90;;;;;;5115507;28;20192;-73
2023/04/21 07:24:03;;;;;;;63.53;37.80;;;9.70;99.90;;;;;;5116015;28;20168;-73
2023/04/21 07:26:28;;;;;;;66.23;38.20;;;9.70;99.90;;;;;;5115411;28;20211;-73
2023/04/21 07:28:57;;;;;;;61.70;37.90;;;9.60;99.90;;;;;;5114318;28;20192;-73
2023/04/21 07:31:23;;;;;;;65.50;38.93;;;9.60;99.90;;;;;;5114264;28;20184;-73
2023/04/21 07:33:49;;;;;;;59.17;36.77;;;9.60;99.90;;;;;;5115591;28;20168;-73
2023/04/21 07:36:15;;;;;;;62.80;39.07;;;9.60;99.90;;;;;;5115472;28;20196;-73
2023/04/21 07:38:42;;;;;;;62.70;37.27;;;9.70;99.90;;;;;;5115319;27;20519;-73
2023/04/21 07:41:11;;;;;;;67.47;38.77;;;9.60;99.90;;;;;;5113997;28;20570;-73
2023/04/21 07:43:38;;;;;;;66.27;38.97;;;9.50;99.90;;;;;;5115989;27;20177;-73
2023/04/21 07:46:05;;;;;;;54.97;35.07;;;9.50;99.90;;;;;;5113913;28;20241;-73
2023/04/21 07:48:31;;;;;;;55.60;35.93;;;9.60;99.90;;;;;;5115235;28;20168;-73
2023/04/21 07:50:59;;;;;;;68.03;40.90;;;9.70;99.90;;;;;;5113720;28;20590;-73
2023/04/21 07:53:26;;;;;;;64.27;38.40;;;9.70;99.90;;;;;;5115059;28;20168;-74
2023/04/21 07:55:53;;;;;;;57.30;35.03;;;9.80;99.90;;;;;;5114067;28;20573;-73
2023/04/21 07:58:19;;;;;;;57.57;36.80;;;9.80;99.90;;;;;;5114973;28;20183;-72
2023/04/21 08:00:45;;;;;;;56.73;36.03;;;9.90;99.90;;;;;;5113652;28;20603;-72
2023/04/21 08:03:10;;;;;;;63.73;37.67;;;10.00;99.90;;;;;;5113632;28;20213;-73
2023/04/21 08:05:36;;;;;;;62.17;37.47;;;10.10;99.90;;;;;;5114412;28;20587;-73
2023/04/21 08:08:02;;;;;;;54.93;36.73;;;10.10;99.90;;;;;;5114891;28;20179;-73
2023/04/21 08:10:28;;;;;;;61.47;37.27;;;10.10;99.90;;;;;;5118714;27;20662;-73
2023/04/21 08:12:53;;;;;;;65.83;39.80;;;10.30;99.90;;;;;;5135213;27;20168;-73
2023/04/21 08:15:19;;;;;;;55.13;37.20;;;10.30;99.90;;;;;;5135152;27;20278;-73
2023/04/21 08:17:45;;;;;;;67.27;38.53;;;10.40;99.90;;;;;;5135279;27;20178;-74
2023/04/21 08:20:12;;;;;;;61.73;37.83;;;10.50;99.90;;;;;;5135580;27;20517;-73
2023/04/21 08:22:37;;;;;;;56.17;36.33;;;10.40;99.90;;;;;;5134170;27;20205;-73
2023/04/21 08:25:04;;;;;;;60.40;37.83;;;10.50;99.90;;;;;;5133809;27;20283;-73
2023/04/21 08:27:30;;;;;;;65.70;38.47;;;10.60;99.90;;;;;;5132011;27;20179;-73
2023/04/21 08:29:56;;;;;;;64.30;39.90;;;10.40;99.90;;;;;;5132530;27;20176;-73
2023/04/21 08:32:25;;;;;;;56.30;37.57;;;10.20;99.90;;;;;;5133016;27;20185;-73
2023/04/21 08:34:52;;;;;;;63.60;37.67;;;10.40;99.90;;;;;;5124903;27;20253;-73
2023/04/21 08:37:19;;;;;;;65.00;38.27;;;10.50;99.90;;;;;;5113965;28;20577;-73
2023/04/21 08:39:45;;;;;;;61.60;38.67;;;10.60;99.90;;;;;;5112334;28;20180;-74
2023/04/21 08:42:18;;;;;;;55.33;35.83;;;10.50;99.90;;;;;;5114244;28;20196;-73
2023/04/21 08:44:45;;;;;;;58.80;36.08;;;10.60;99.90;;;;;;5112887;28;20664;-73
2023/04/21 08:47:11;;;;;;;51.37;34.83;;;10.50;99.90;;;;;;5114617;28;20215;-74
2023/04/21 08:49:39;;;;;;;54.20;34.57;;;10.50;99.90;;;;;;5114882;28;20168;-74
2023/04/21 08:52:05;;;;;;;51.00;34.00;;;10.50;99.90;;;;;;5114931;28;20632;-74
2023/04/21 08:54:32;;;;;;;52.17;34.05;;;10.50;99.90;;;;;;5116819;28;20196;-80
2023/04/21 08:56:58;;;;;;;54.70;36.60;;;10.50;99.90;;;;;;5116775;28;20629;-80
2023/04/21 08:59:24;;;;;;;57.73;37.77;;;10.60;99.90;;;;;;5117284;28;20168;-77
2023/04/21 09:02:14;;;;;;;58.53;35.33;;;10.60;99.90;;;;;;5115255;28;20207;-78
2023/04/21 09:04:49;;;;;;;55.43;35.67;;;10.70;99.90;;;;;;5114669;28;20204;-78
2023/04/21 09:07:31;;;;;;;54.37;35.30;;;10.80;99.90;;;;;;5116046;28;20243;-78
2023/04/21 09:09:59;;;;;;;59.35;37.33;;;11.00;99.90;;;;;;5114842;28;20190;-77
2023/04/21 09:12:26;;;;;;;65.97;40.10;;;11.10;99.90;;;;;;5114899;28;20191;-78
2023/04/21 09:14:52;;;;;;;58.65;37.17;;;10.90;99.90;;;;;;5113339;28;20664;-77
2023/04/21 09:17:23;;;;;;;56.23;38.07;;;10.80;99.90;;;;;;5117169;28;20206;-78
2023/04/21 09:19:49;;;;;;;53.00;35.78;;;10.90;99.90;;;;;;5118814;28;20548;-76
2023/04/21 09:22:16;;;;;;;64.45;38.35;;;10.90;99.90;;;;;;5119289;28;20719;-76
2023/04/21 09:24:55;;;;;;;55.50;37.03;;;11.00;99.90;;;;;;5119207;28;20188;-73
2023/04/21 09:27:22;;;;;;;54.78;36.03;;;11.00;99.90;;;;;;5122481;28;20185;-78
2023/04/21 09:29:48;;;;;;;55.53;36.53;;;11.00;99.90;;;;;;5131919;28;20145;-72
2023/04/21 09:32:20;;;;;;;51.33;34.87;;;11.10;99.90;;;;;;5124644;28;20623;-77
2023/04/21 09:34:46;;;;;;;56.83;38.13;;;11.20;99.90;;;;;;5119663;28;20239;-73
2023/04/21 09:37:13;;;;;;;57.27;37.93;;;11.20;99.90;;;;;;5120084;28;20176;-73
2023/04/21 09:39:43;;;;;;;57.88;37.55;;;11.30;99.90;;;;;;5117646;28;20177;-74
2023/04/21 09:42:10;;;;;;;56.10;35.57;;;11.20;99.90;;;;;;5118422;28;20196;-74
2023/04/21 09:44:37;;;;;;;56.28;36.38;;;11.30;99.90;;;;;;5118631;28;20193;-74
2023/04/21 09:47:03;;;;;;;52.05;34.90;;;11.30;99.90;;;;;;5116872;28;20280;-74
2023/04/21 09:49:33;;;;;;;56.42;38.15;;;11.30;99.90;;;;;;5118232;27;20222;-75
2023/04/21 09:52:00;;;;;;;50.95;34.22;;;11.30;99.90;;;;;;5117788;28;20168;-74
2023/04/21 09:54:40;;;;;;;50.78;35.50;;;11.30;99.90;;;;;;5116374;28;20183;-74
2023/04/21 09:57:12;;;;;;;53.35;35.20;;;11.40;99.90;;;;;;5117790;28;20609;-74
2023/04/21 09:59:46;;;;;;;54.63;36.65;;;11.50;99.90;;;;;;5117355;28;20187;-75
2023/04/21 10:02:12;;;;;;;52.80;35.25;;;11.60;99.90;;;;;;5117710;28;20192;-74
2023/04/21 10:04:40;;;;;;;58.75;37.72;;;11.70;99.90;;;;;;5116314;28;20345;-75
2023/04/21 10:07:08;;;;;;;55.57;35.07;;;11.90;99.90;;;;;;5117554;28;20164;-75
2023/04/21 10:10:01;;;;;;;58.78;37.30;;;12.10;99.90;;;;;;5117447;28;20633;-74
2023/04/21 10:12:27;;;;;;;52.65;35.50;;;12.40;99.90;;;;;;5115771;28;20188;-74
2023/04/21 10:14:54;;;;;;;52.55;35.08;;;12.60;99.90;;;;;;5115910;28;20197;-74
2023/04/21 10:17:24;;;;;;;51.95;35.78;;;12.90;99.90;;;;;;5117163;28;20641;-74
2023/04/21 10:19:58;;;;;;;49.55;33.35;;;13.20;99.90;;;;;;5117145;28;20636;-74
2023/04/21 10:22:32;;;;;;;45.53;31.23;;;13.50;99.90;;;;;;5115811;28;20172;-74
2023/04/21 10:25:03;;;;;;;41.05;28.90;;;13.80;99.90;;;;;;5116029;28;20671;-74
2023/04/21 10:27:39;;;;;;;40.70;27.63;;;14.40;99.90;;;;;;5115736;28;20549;-69
2023/04/21 10:30:19;;;;;;;35.22;24.98;;;14.60;99.90;;;;;;5116825;28;20190;-70
2023/04/21 10:33:03;;;;;;;34.88;25.48;;;14.90;99.90;;;;;;5117219;28;20217;-70
2023/04/21 10:36:21;;;;;;;32.13;23.52;;;14.90;99.90;;;;;;5128660;27;20679;-70
2023/04/21 10:38:56;;;;;;;30.35;22.75;;;14.80;99.90;;;;;;5137020;27;20194;-70
2023/04/21 10:41:25;;;;;;;33.70;24.00;;;14.80;99.90;;;;;;5140404;27;20195;-72
2023/04/21 10:43:51;;;;;;;32.85;23.67;;;14.70;99.90;;;;;;5139424;27;20195;-72
2023/04/21 10:46:43;;;;;;;30.33;22.40;;;14.50;99.90;;;;;;5139740;27;20195;-74
2023/04/21 10:49:11;;;;;;;30.85;22.45;;;14.30;99.90;;;;;;5136433;27;20190;-70
2023/04/21 10:51:58;;;;;;;28.02;21.73;;;14.20;99.90;;;;;;5138891;27;20164;-70
2023/04/21 10:54:26;;;;;;;32.38;23.33;;;14.10;99.90;;;;;;5136947;27;20178;-70
2023/04/21 10:56:56;;;;;;;34.20;24.25;;;14.10;99.90;;;;;;5135596;27;20182;-70
2023/04/21 10:59:24;;;;;;;30.25;23.27;;;14.10;99.90;;;;;;5135354;27;20176;-69
2023/04/21 11:01:50;;;;;;;31.52;24.10;;;14.00;99.90;;;;;;5137073;27;20188;-73
2023/04/21 11:04:17;;;;;;;32.88;22.90;;;14.10;99.90;;;;;;5133811;27;20179;-70
2023/04/21 11:07:02;;;;;;;33.30;23.27;;;14.00;99.90;;;;;;5115648;28;20187;-72
2023/04/21 11:09:28;;;;;;;32.22;24.05;;;14.00;99.90;;;;;;5118709;27;20161;-73
2023/04/21 11:11:58;;;;;;;28.58;21.55;;;13.90;99.90;;;;;;5117900;28;20213;-72
2023/04/21 11:14:24;;;;;;;29.35;21.98;;;13.90;99.90;;;;;;5116116;28;20181;-72
2023/04/21 11:16:50;;;;;;;29.85;21.58;;;13.90;99.90;;;;;;5117380;28;20183;-72
2023/04/21 11:19:16;;;;;;;30.10;21.88;;;13.90;99.90;;;;;;5114946;28;20169;-72
2023/04/21 11:21:42;;;;;;;29.23;22.38;;;13.90;99.90;;;;;;5115654;28;20562;-72
2023/04/21 11:24:08;;;;;;;28.95;21.13;;;14.00;99.90;;;;;;5115914;28;20176;-72
2023/04/21 11:26:37;;;;;;;30.80;20.50;;;14.00;99.90;;;;;;5114250;28;20196;-74
2023/04/21 11:29:09;;;;;;;28.75;20.85;;;14.00;99.90;;;;;;5115722;28;20172;-72
2023/04/21 11:31:35;;;;;;;30.30;22.08;;;13.90;99.90;;;;;;5114184;28;20595;-72
2023/04/21 11:34:05;;;;;;;27.73;21.20;;;13.90;99.90;;;;;;5115658;28;20546;-72
2023/04/21 11:36:35;;;;;;;28.77;21.25;;;14.00;99.90;;;;;;5115423;28;20216;-72
2023/04/21 11:39:20;;;;;;;31.98;20.30;;;14.20;99.90;;;;;;5115756;28;20222;-72
2023/04/21 11:41:48;;;;;;;27.77;21.17;;;14.40;99.90;;;;;;5114515;28;20733;-72
2023/04/21 11:44:49;;;;;;;26.75;19.65;;;14.50;99.90;;;;;;5115581;28;20613;-72
2023/04/21 11:47:20;;;;;;;29.95;20.63;;;14.60;99.90;;;;;;5113671;28;20573;-72
2023/04/21 11:49:57;;;;;;;26.88;19.55;;;14.80;99.90;;;;;;5113975;28;20212;-72
2023/04/21 11:52:37;;;;;;;29.02;20.38;;;14.90;99.90;;;;;;5115085;28;20599;-72
2023/04/21 11:55:16;;;;;;;26.25;19.30;;;15.00;99.90;;;;;;5113831;28;20202;-72
2023/04/21 11:57:42;;;;;;;29.48;19.05;;;15.00;99.90;;;;;;5113772;28;20165;-72
2023/04/21 12:00:14;;;;;;;28.92;21.63;;;15.10;99.90;;;;;;5114846;28;20195;-72
2023/04/21 12:02:40;;;;;;;27.65;20.55;;;15.40;99.90;;;;;;5113658;28;20243;-72
2023/04/21 12:05:08;;;;;;;21.90;17.42;;;15.50;99.90;;;;;;5114987;28;20273;-74
2023/04/21 12:07:46;;;;;;;26.52;20.25;;;15.70;99.90;;;;;;5114978;28;20164;-74
2023/04/21 12:10:15;;;;;;;25.25;18.92;;;15.80;99.90;;;;;;5115245;28;20148;-74
2023/04/21 12:12:42;;;;;;;30.55;20.80;;;15.80;99.90;;;;;;5115211;28;20238;-73
2023/04/21 12:15:11;;;;;;;24.80;19.77;;;15.80;99.90;;;;;;5114814;28;20188;-73
2023/04/21 12:17:44;;;;;;;24.60;19.27;;;16.00;99.90;;;;;;5114915;28;20160;-70
2023/04/21 12:20:10;;;;;;;23.20;17.73;;;16.10;99.90;;;;;;5113339;28;20530;-70
2023/04/21 12:22:36;;;;;;;21.83;17.40;;;16.10;99.90;;;;;;5113629;28;20168;-70
2023/04/21 12:25:03;;;;;;;27.45;18.65;;;16.10;99.90;;;;;;5114400;28;20668;-70
2023/04/21 12:27:30;;;;;;;24.02;18.77;;;16.10;99.90;;;;;;5114252;28;20183;-70
2023/04/21 12:29:56;;;;;;;24.77;18.83;;;16.20;99.90;;;;;;5113225;28;20172;-71
2023/04/21 12:32:23;;;;;;;27.08;18.73;;;16.20;99.90;;;;;;5113194;28;20175;-71
2023/04/21 12:34:49;;;;;;;28.30;19.70;;;16.30;99.90;;;;;;5112864;28;20197;-70